Terminal Aerodrome Forecast
Issued by NWS

Home | Current Version | Previous Version | Text Only | Print | Product List | Glossary On
Versions: 1 2 3 4 5 6 7 8 9 10 11 12 13 14 15 16 17 18 19 20 21 22
000
FTUS43 KGRR 300827 AAA
TAFJXN
TAF AMD
KJXN 300827Z 3008/0106 03009KT P6SM -RA OVC005
     FM301100 06007KT 4SM -RA BR OVC005
     FM301500 06011G17KT 4SM -RA BR OVC008
     FM010000 06012KT 4SM -RA BR OVC008=

USA.gov is the U.S. government's official web portal to all federal, state and local government web resources and services.